Time;durP1;ratioP1;P1;durP2;ratioP2;P2;SDS_P1;SDS_P2;PMS_P1;PMS_P2;Temp;Humidity;BMP_temperature;BMP_pressure;BME280_temperature;BME280_humidity;BME280_pressure;Samples;Min_cycle;Max_cycle;Signal;HPM_P1;HPM_P2
2021/11/14 00:02:07;;;;;;;63.30;32.43;;;;;;;8.84;93.02;100300.28;5028940;28;20422;-83
2021/11/14 00:04:33;;;;;;;81.47;35.50;;;;;;;8.87;93.07;100302.50;5032674;28;20753;-82
2021/11/14 00:06:58;;;;;;;90.13;37.27;;;;;;;8.86;93.15;100296.28;5043277;28;20445;-82
2021/11/14 00:09:23;;;;;;;90.10;38.13;;;;;;;8.88;92.98;100300.63;5033162;28;20478;-82
2021/11/14 00:11:48;;;;;;;83.47;37.37;;;;;;;8.89;92.84;100297.69;5032564;28;20512;-82
2021/11/14 00:14:14;;;;;;;87.28;38.33;;;;;;;8.91;92.70;100300.16;5032629;28;20411;-82
2021/11/14 00:16:39;;;;;;;93.10;39.23;;;;;;;8.92;92.29;100305.34;5030158;28;20545;-82
2021/11/14 00:19:05;;;;;;;80.83;37.10;;;;;;;8.91;92.79;100300.16;5032933;28;20485;-82
2021/11/14 00:21:31;;;;;;;90.07;38.00;;;;;;;8.92;92.79;100297.22;5037770;28;20483;-82
2021/11/14 00:23:57;;;;;;;91.38;37.97;;;;;;;8.92;92.76;100297.22;5033226;28;20928;-82
2021/11/14 00:26:23;;;;;;;95.32;37.25;;;;;;;8.93;92.39;100289.91;5031066;28;20442;-82
2021/11/14 00:28:49;;;;;;;93.40;39.60;;;;;;;8.94;92.52;100295.09;5020976;28;20411;-82
2021/11/14 00:31:17;;;;;;;87.22;37.90;;;;;;;8.95;92.38;100293.22;5029751;28;20801;-82
2021/11/14 00:33:44;;;;;;;99.57;38.28;;;;;;;8.95;92.67;100304.03;5031897;28;20890;-83
2021/11/14 00:36:11;;;;;;;110.57;40.47;;;;;;;8.95;92.95;100304.84;5032404;28;20398;-82
2021/11/14 00:38:38;;;;;;;92.53;39.38;;;;;;;8.95;92.57;100295.91;5032191;28;20917;-82
2021/11/14 00:41:04;;;;;;;84.28;37.78;;;;;;;8.94;92.56;100302.38;5030892;28;20438;-82
2021/11/14 00:43:29;;;;;;;82.60;35.35;;;;;;;8.91;92.88;100300.97;5032292;28;20484;-82
2021/11/14 00:45:55;;;;;;;94.00;38.33;;;;;;;8.90;92.84;100304.72;5031113;28;20443;-82
2021/11/14 00:48:20;;;;;;;98.63;39.20;;;;;;;8.92;92.62;100304.50;5032117;28;20402;-82
2021/11/14 00:50:47;;;;;;;95.95;39.50;;;;;;;8.92;92.57;100302.63;5031043;28;20414;-82
2021/11/14 00:53:14;;;;;;;101.32;40.60;;;;;;;8.95;92.60;100302.16;5030929;28;20870;-82
2021/11/14 00:55:41;;;;;;;101.43;39.80;;;;;;;8.95;92.95;100307.56;5032153;28;20386;-82
2021/11/14 00:58:06;;;;;;;105.50;41.17;;;;;;;8.93;92.55;100306.94;5031443;28;20399;-82
2021/11/14 01:00:33;;;;;;;107.70;41.80;;;;;;;8.94;93.08;100305.06;5028521;28;20411;-82
2021/11/14 01:02:59;;;;;;;102.45;40.67;;;;;;;8.94;92.83;100307.78;5035049;28;20471;-82
2021/11/14 01:05:25;;;;;;;96.68;39.78;;;;;;;8.94;92.58;100307.78;5034954;28;20411;-82
2021/11/14 01:07:51;;;;;;;111.13;41.77;;;;;;;8.94;92.85;100310.47;5030636;28;20456;-82
2021/11/14 01:10:21;;;;;;;103.25;40.92;;;;;;;8.95;92.49;100312.13;5032155;28;20434;-82
2021/11/14 01:12:47;;;;;;;120.95;42.60;;;;;;;8.96;92.59;100313.78;5040893;28;20387;-82
2021/11/14 01:15:14;;;;;;;107.72;41.83;;;;;;;8.96;92.59;100309.19;5031407;28;20489;-82
2021/11/14 01:17:40;;;;;;;105.22;41.65;;;;;;;8.96;92.82;100311.09;5029423;28;20406;-82
2021/11/14 01:20:12;;;;;;;95.47;40.47;;;;;;;8.96;92.78;100309.19;5030811;28;20918;-82
2021/11/14 01:22:39;;;;;;;85.80;37.88;;;;;;;8.97;92.43;100312.72;5039969;28;20421;-82
2021/11/14 01:25:06;;;;;;;85.50;39.20;;;;;;;8.96;92.59;100311.88;5029785;28;20409;-82
2021/11/14 01:27:32;;;;;;;105.28;41.92;;;;;;;8.97;92.54;100316.22;5027901;28;20802;-82
2021/11/14 01:29:57;;;;;;;97.47;39.83;;;;;;;8.97;92.71;100310.00;5030783;28;20383;-82
2021/11/14 01:32:23;;;;;;;113.33;43.37;;;;;;;8.97;92.64;100308.13;5028850;28;20499;-83
2021/11/14 01:34:48;;;;;;;93.23;40.30;;;;;;;9.00;92.54;100313.06;5032357;28;20496;-82
2021/11/14 01:37:13;;;;;;;100.37;40.63;;;;;;;8.97;92.22;100313.53;5029064;28;20419;-82
2021/11/14 01:39:39;;;;;;;115.37;43.00;;;;;;;8.98;92.62;100317.06;5031406;28;20387;-82
2021/11/14 01:42:16;;;;;;;109.57;42.43;;;;;;;8.98;92.38;100308.94;5039472;28;20427;-82
2021/11/14 01:44:41;;;;;;;89.28;39.08;;;;;;;8.98;92.69;100307.06;5035345;28;20456;-82
2021/11/14 01:47:06;;;;;;;126.57;44.20;;;;;;;8.98;92.71;100311.66;5034615;28;20441;-82
2021/11/14 01:49:32;;;;;;;110.27;41.67;;;;;;;8.97;92.61;100310.00;5036891;28;20407;-82
2021/11/14 01:51:58;;;;;;;113.78;42.45;;;;;;;8.96;92.35;100313.78;5045516;28;20409;-82
2021/11/14 01:54:23;;;;;;;88.68;38.47;;;;;;;8.95;92.71;100318.38;5036475;28;20407;-82
2021/11/14 01:56:49;;;;;;;103.13;41.90;;;;;;;8.96;92.42;100320.00;5036810;28;20407;-82
2021/11/14 01:59:16;;;;;;;97.18;40.78;;;;;;;8.98;92.22;100322.47;5026790;28;20441;-82
2021/11/14 02:01:41;;;;;;;80.55;36.80;;;;;;;9.00;91.80;100326.56;5038015;28;20961;-82
2021/11/14 02:04:07;;;;;;;100.50;41.00;;;;;;;8.99;91.84;100319.50;5029773;28;20537;-82
2021/11/14 02:06:38;;;;;;;84.28;36.88;;;;;;;8.94;92.07;100316.72;5036703;28;20409;-82
2021/11/14 02:09:05;;;;;;;111.32;42.67;;;;;;;8.93;92.25;100317.75;5029086;28;20885;-82
2021/11/14 02:11:30;;;;;;;112.72;42.55;;;;;;;8.93;92.44;100315.06;5028886;28;20407;-82
2021/11/14 02:13:56;;;;;;;128.63;44.28;;;;;;;8.92;92.41;100316.13;5027899;28;20417;-83
2021/11/14 02:16:25;;;;;;;140.98;47.28;;;;;;;8.94;92.33;100311.31;5029863;28;20406;-83
2021/11/14 02:18:51;;;;;;;135.60;46.58;;;;;;;8.92;92.49;100324.25;5030796;28;20485;-82
2021/11/14 02:21:17;;;;;;;152.37;47.23;;;;;;;8.94;92.33;100318.59;5032004;28;20497;-82
2021/11/14 02:23:45;;;;;;;160.25;49.10;;;;;;;8.91;92.70;100319.06;5031202;28;20449;-82
2021/11/14 02:26:11;;;;;;;147.88;47.90;;;;;;;8.91;92.93;100325.28;5033531;28;20415;-82
2021/11/14 02:28:36;;;;;;;177.30;52.28;;;;;;;8.92;93.00;100321.53;5021083;28;20486;-83
2021/11/14 02:31:02;;;;;;;141.00;48.08;;;;;;;8.92;93.13;100326.94;5034496;28;20419;-82
2021/11/14 02:33:29;;;;;;;150.52;47.75;;;;;;;8.91;93.24;100319.91;5032380;28;20457;-82
2021/11/14 02:36:00;;;;;;;121.05;45.45;;;;;;;8.93;93.16;100320.47;5032441;28;20418;-82
2021/11/14 02:38:26;;;;;;;144.45;48.03;;;;;;;8.94;92.55;100326.69;5030013;28;20410;-82
2021/11/14 02:40:52;;;;;;;144.65;47.47;;;;;;;8.94;92.99;100321.28;5039186;28;20409;-82
2021/11/14 02:43:19;;;;;;;150.15;47.53;;;;;;;8.94;92.89;100324.00;5041960;28;20393;-83
2021/11/14 02:45:45;;;;;;;112.38;44.40;;;;;;;8.94;92.99;100326.69;5036443;28;20456;-82
2021/11/14 02:48:12;;;;;;;150.65;49.67;;;;;;;8.94;92.93;100326.69;5034418;28;20766;-82
2021/11/14 02:50:39;;;;;;;132.65;48.00;;;;;;;8.95;92.64;100336.47;5038264;28;20406;-82
2021/11/14 02:53:05;;;;;;;131.13;45.97;;;;;;;8.93;92.66;100333.97;5042619;28;20403;-82
2021/11/14 02:55:31;;;;;;;120.45;44.85;;;;;;;8.93;92.29;100330.44;5035199;28;20416;-82
2021/11/14 02:57:56;;;;;;;124.60;46.60;;;;;;;8.94;92.46;100322.13;5035572;28;20399;-82
2021/11/14 03:00:35;;;;;;;124.87;45.00;;;;;;;8.93;92.61;100323.16;5035486;28;20500;-82
2021/11/14 03:03:00;;;;;;;121.13;42.77;;;;;;;8.95;92.87;100336.47;5042081;28;20407;-82
2021/11/14 03:05:25;;;;;;;115.17;43.60;;;;;;;8.95;92.64;100325.66;5036110;28;20926;-82
2021/11/14 03:07:52;;;;;;;133.00;46.58;;;;;;;8.90;92.80;100322.81;5033719;28;20395;-81
2021/11/14 03:10:21;;;;;;;128.07;45.88;;;;;;;8.89;92.85;100332.84;5036059;28;20413;-82
2021/11/14 03:13:02;;;;;;;126.80;44.92;;;;;;;8.90;92.71;100333.63;5034073;28;22056;-82
2021/11/14 03:15:32;;;;;;;129.70;46.08;;;;;;;8.88;92.50;100331.19;5037749;28;20405;-80
2021/11/14 03:17:58;;;;;;;124.18;45.33;;;;;;;8.90;92.81;100334.44;5034208;28;20391;-82
2021/11/14 03:20:24;;;;;;;101.40;42.07;;;;;;;8.91;92.46;100336.09;5035783;28;20417;-82
2021/11/14 03:22:49;;;;;;;124.70;45.23;;;;;;;8.92;92.42;100340.47;5040464;28;20916;-82
2021/11/14 03:25:20;;;;;;;117.07;42.87;;;;;;;8.93;92.76;100339.38;5032596;28;20427;-82
2021/11/14 03:27:45;;;;;;;96.30;41.10;;;;;;;8.94;92.43;100335.63;5025176;28;20495;-82
2021/11/14 03:30:11;;;;;;;93.87;38.17;;;;;;;8.92;92.62;100334.22;5032045;28;21162;-82
2021/11/14 03:32:38;;;;;;;104.05;39.65;;;;;;;8.91;92.55;100338.81;5040946;28;20403;-82
2021/11/14 03:35:04;;;;;;;108.57;40.80;;;;;;;8.88;92.58;100336.59;5031947;28;20395;-82
2021/11/14 03:37:29;;;;;;;108.93;39.83;;;;;;;8.85;92.50;100337.06;5032459;28;20411;-82
2021/11/14 03:39:54;;;;;;;115.03;41.03;;;;;;;8.86;92.33;100342.22;5032447;28;20963;-82
2021/11/14 03:42:20;;;;;;;117.90;42.03;;;;;;;8.87;92.64;100340.34;5039525;28;20950;-82
2021/11/14 03:44:45;;;;;;;109.47;40.53;;;;;;;8.89;92.52;100346.34;5033113;28;20769;-83
2021/11/14 03:47:10;;;;;;;111.68;39.63;;;;;;;8.89;92.73;100342.81;5029182;28;20540;-82
2021/11/14 03:49:37;;;;;;;112.60;40.17;;;;;;;8.87;92.74;100340.34;5019214;28;20884;-82
2021/11/14 03:52:07;;;;;;;138.07;43.92;;;;;;;8.88;92.74;100344.69;5038464;28;20763;-82
2021/11/14 03:54:33;;;;;;;91.20;37.72;;;;;;;8.89;92.93;100343.63;5031954;28;20819;-82
2021/11/14 03:56:58;;;;;;;97.23;36.97;;;;;;;8.89;92.58;100348.22;5041421;28;21136;-82
2021/11/14 03:59:23;;;;;;;113.73;38.63;;;;;;;8.88;92.84;100349.28;5032544;28;20437;-82
2021/11/14 04:01:48;;;;;;;117.60;40.13;;;;;;;8.87;92.95;100353.84;5034284;28;20497;-82
2021/11/14 04:04:14;;;;;;;81.30;34.37;;;;;;;8.91;92.92;100346.09;5033302;28;20857;-82
2021/11/14 04:06:39;;;;;;;76.33;31.63;;;;;;;8.90;92.62;100355.25;5044017;28;20420;-82
2021/11/14 04:09:04;;;;;;;81.67;33.17;;;;;;;8.89;92.85;100359.03;5028776;28;20765;-82
2021/11/14 04:11:30;;;;;;;85.40;33.72;;;;;;;8.88;92.42;100354.69;5034674;28;20407;-81
2021/11/14 04:13:55;;;;;;;88.87;34.30;;;;;;;8.88;92.57;100366.31;5032994;28;20399;-82
2021/11/14 04:16:21;;;;;;;88.90;33.72;;;;;;;8.88;93.11;100357.38;5039872;28;20417;-82
2021/11/14 04:18:47;;;;;;;84.03;33.17;;;;;;;8.88;92.65;100368.19;5032886;28;20414;-82
2021/11/14 04:21:12;;;;;;;90.65;34.72;;;;;;;8.88;92.89;100370.88;5031483;28;20469;-82
2021/11/14 04:23:38;;;;;;;94.25;34.45;;;;;;;8.89;92.52;100372.53;5032961;28;20494;-82
2021/11/14 04:26:07;;;;;;;102.68;35.63;;;;;;;8.89;92.87;100362.56;5044330;28;20420;-81
2021/11/14 04:28:33;;;;;;;90.27;34.60;;;;;;;8.92;92.99;100372.06;5017105;28;20403;-82
2021/11/14 04:30:59;;;;;;;102.73;36.97;;;;;;;8.91;92.52;100371.25;5030626;28;20898;-82
2021/11/14 04:33:25;;;;;;;88.95;35.55;;;;;;;8.94;92.51;100376.16;5032286;28;20486;-82
2021/11/14 04:35:51;;;;;;;89.15;35.80;;;;;;;8.97;92.68;100372.16;5031204;28;20412;-83
2021/11/14 04:38:16;;;;;;;69.78;30.70;;;;;;;8.98;92.73;100381.94;5033035;28;21004;-82
2021/11/14 04:40:42;;;;;;;76.33;33.53;;;;;;;8.97;92.28;100388.38;5031418;28;20411;-82
2021/11/14 04:43:11;;;;;;;71.00;33.28;;;;;;;8.95;92.67;100385.94;5032250;28;20438;-82
2021/11/14 04:45:38;;;;;;;76.38;34.35;;;;;;;8.93;92.72;100382.63;5035735;28;20437;-82
2021/11/14 04:48:05;;;;;;;75.57;34.07;;;;;;;8.96;92.98;100381.34;5042103;28;20409;-82
2021/11/14 04:50:32;;;;;;;65.20;30.40;;;;;;;8.97;92.54;100388.38;5027014;28;20762;-83
2021/11/14 04:52:57;;;;;;;62.40;29.58;;;;;;;8.96;92.75;100384.06;5031250;28;20429;-82
2021/11/14 04:55:23;;;;;;;59.20;28.40;;;;;;;8.96;92.69;100381.34;5033185;28;20410;-82
2021/11/14 04:57:51;;;;;;;58.22;27.73;;;;;;;8.98;92.67;100382.75;5034114;28;20388;-82
2021/11/14 05:00:41;;;;;;;61.15;28.42;;;;;;;8.98;92.15;100390.03;5031804;28;20415;-82
2021/11/14 05:03:06;;;;;;;56.05;28.40;;;;;;;8.98;92.50;100376.53;5026508;28;20459;-82
2021/11/14 05:05:33;;;;;;;53.22;26.33;;;;;;;8.98;92.35;100382.75;5029440;28;20852;-83
2021/11/14 05:07:59;;;;;;;49.38;25.00;;;;;;;8.96;92.32;100381.34;5031926;28;20383;-82
2021/11/14 05:10:24;;;;;;;47.72;25.75;;;;;;;8.94;92.83;100383.44;5028958;28;20966;-83
2021/11/14 05:12:49;;;;;;;49.27;25.90;;;;;;;8.93;92.97;100390.72;5030727;28;21027;-83
2021/11/14 05:15:15;;;;;;;53.97;25.13;;;;;;;8.94;92.61;100392.38;5030637;28;20418;-83
2021/11/14 05:17:40;;;;;;;40.05;23.42;;;;;;;8.97;92.71;100382.97;5032405;28;20428;-83
2021/11/14 05:20:06;;;;;;;50.77;25.60;;;;;;;8.95;92.69;100390.50;5025811;28;20524;-83
2021/11/14 05:22:32;;;;;;;45.70;25.88;;;;;;;8.97;92.31;100394.63;5037435;28;20446;-82
2021/11/14 05:24:57;;;;;;;48.92;25.25;;;;;;;8.99;92.20;100399.81;5031537;28;20870;-83
2021/11/14 05:27:23;;;;;;;40.10;23.50;;;;;;;8.99;92.61;100405.22;5030889;28;20403;-83
2021/11/14 05:29:48;;;;;;;39.80;23.63;;;;;;;8.97;92.58;100407.31;5030296;28;20399;-82
2021/11/14 05:32:13;;;;;;;42.87;23.77;;;;;;;8.96;92.03;100408.38;5038859;28;20506;-82
2021/11/14 05:34:39;;;;;;;37.17;22.90;;;;;;;8.94;92.53;100408.59;5028230;28;20425;-83
2021/11/14 05:37:04;;;;;;;36.93;22.37;;;;;;;8.92;92.58;100410.72;5030299;28;20813;-82
2021/11/14 05:39:30;;;;;;;38.77;22.83;;;;;;;8.94;92.48;100413.19;5031603;28;20762;-82
2021/11/14 05:41:55;;;;;;;40.93;24.60;;;;;;;8.93;92.11;100409.66;5034946;28;20422;-82
2021/11/14 05:44:21;;;;;;;45.47;24.90;;;;;;;8.95;92.23;100417.53;5032955;28;20897;-82
2021/11/14 05:46:46;;;;;;;35.13;22.43;;;;;;;8.94;92.39;100415.88;5042820;28;20402;-83
2021/11/14 05:49:14;;;;;;;33.67;21.50;;;;;;;8.93;91.97;100419.63;5038206;28;21541;-83
2021/11/14 05:51:39;;;;;;;34.63;21.90;;;;;;;8.93;91.98;100425.03;5033526;28;20773;-82
2021/11/14 05:54:05;;;;;;;39.15;22.65;;;;;;;8.91;92.09;100428.00;5031431;28;20478;-82
2021/11/14 05:56:31;;;;;;;32.47;21.92;;;;;;;8.89;92.02;100430.13;5043655;28;20946;-82
2021/11/14 06:01:40;;;;;;;38.72;23.27;;;;;;;8.89;92.39;100440.94;5040589;28;20426;-82
2021/11/14 06:06:57;;;;;;;38.92;24.75;;;;;;;8.90;92.01;100445.25;5021895;28;20422;-82
2021/11/14 06:09:22;;;;;;;38.37;23.70;;;;;;;8.90;92.31;100447.97;5037935;28;20399;-82
2021/11/14 06:11:48;;;;;;;51.17;25.30;;;;;;;8.89;91.88;100457.16;5039617;28;20530;-83
2021/11/14 06:14:13;;;;;;;45.87;26.17;;;;;;;8.86;92.24;100450.31;5038413;28;20426;-83
2021/11/14 06:16:39;;;;;;;41.23;25.47;;;;;;;8.87;92.16;100456.53;5043540;28;20424;-83
2021/11/14 06:19:04;;;;;;;44.80;25.47;;;;;;;8.88;92.23;100457.38;5032370;28;20415;-82
2021/11/14 06:21:31;;;;;;;48.85;26.63;;;;;;;8.85;92.34;100464.06;5042990;28;22626;-82
2021/11/14 06:23:57;;;;;;;48.60;27.63;;;;;;;8.84;92.45;100459.72;5039559;28;20424;-82
2021/11/14 06:26:23;;;;;;;45.00;26.43;;;;;;;8.86;92.47;100468.38;5043675;28;20409;-82
2021/11/14 06:28:49;;;;;;;48.55;27.35;;;;;;;8.82;92.52;100464.53;5036405;28;20494;-82
2021/11/14 06:31:14;;;;;;;43.37;26.93;;;;;;;8.79;92.48;100462.31;5033442;28;20500;-84
2021/11/14 06:33:40;;;;;;;46.57;27.87;;;;;;;8.80;92.79;100474.72;5029441;28;20413;-82
2021/11/14 06:36:05;;;;;;;43.83;27.53;;;;;;;8.81;92.54;100471.81;5031540;28;20747;-83
2021/11/14 06:38:31;;;;;;;47.70;28.60;;;;;;;8.77;92.54;100475.19;5031429;28;22405;-82
2021/11/14 06:40:56;;;;;;;52.97;29.90;;;;;;;8.79;92.80;100479.31;5031897;28;20967;-82
2021/11/14 06:43:21;;;;;;;48.92;29.63;;;;;;;8.79;92.26;100482.00;5037100;28;20403;-82
2021/11/14 06:45:47;;;;;;;53.90;29.70;;;;;;;8.76;92.66;100484.34;5040311;28;20493;-81
2021/11/14 06:48:12;;;;;;;47.47;30.07;;;;;;;8.74;92.64;100484.59;5033689;28;20414;-82
2021/11/14 06:50:37;;;;;;;43.67;30.23;;;;;;;8.73;92.67;100490.22;5040158;28;20776;-83
2021/11/14 06:53:03;;;;;;;46.90;30.17;;;;;;;8.73;92.91;100503.72;5036477;28;20422;-82
2021/11/14 06:55:29;;;;;;;46.20;30.70;;;;;;;8.72;92.66;100507.50;5037398;28;20478;-82
2021/11/14 06:57:54;;;;;;;47.00;32.00;;;;;;;8.73;92.75;100504.56;5036350;28;20498;-81
2021/11/14 07:00:23;;;;;;;54.67;33.75;;;;;;;8.72;92.52;100507.50;5036826;28;20395;-82
2021/11/14 07:02:49;;;;;;;50.83;32.53;;;;;;;8.72;92.36;100497.53;5035833;28;20517;-83
2021/11/14 07:05:15;;;;;;;55.78;33.03;;;;;;;8.74;92.27;100508.91;5030272;28;20890;-82
2021/11/14 07:07:41;;;;;;;46.57;31.60;;;;;;;8.77;92.52;100505.75;5029340;28;20638;-83
2021/11/14 07:10:08;;;;;;;48.15;32.10;;;;;;;8.78;92.23;100518.22;5032190;28;20391;-88
2021/11/14 07:12:34;;;;;;;47.28;32.88;;;;;;;8.75;92.17;100521.38;5028810;28;20402;-83
2021/11/14 07:14:59;;;;;;;53.90;34.35;;;;;;;8.73;91.99;100515.38;5027060;28;20494;-79
2021/11/14 07:17:26;;;;;;;60.73;35.63;;;;;;;8.72;92.31;100521.03;5017905;28;20487;-84
2021/11/14 07:19:52;;;;;;;55.30;35.22;;;;;;;8.67;92.12;100521.69;5031811;28;20418;-87
2021/11/14 07:22:18;;;;;;;64.77;36.63;;;;;;;8.65;91.87;100526.53;5023598;28;20502;-86
2021/11/14 07:24:43;;;;;;;56.77;35.47;;;;;;;8.64;92.32;100519.47;5027025;28;20484;-87
2021/11/14 07:27:09;;;;;;;50.33;34.60;;;;;;;8.66;92.43;100522.75;5021749;28;20877;-84
2021/11/14 07:29:34;;;;;;;57.30;36.63;;;;;;;8.70;91.86;100528.50;5031574;28;20410;-84
2021/11/14 07:31:59;;;;;;;54.70;35.50;;;;;;;8.69;92.19;100527.69;5027332;28;20413;-86
2021/11/14 07:34:25;;;;;;;60.40;37.13;;;;;;;8.69;92.10;100533.09;5026224;28;20407;-84
2021/11/14 07:36:50;;;;;;;58.33;37.00;;;;;;;8.74;91.96;100532.41;5031275;28;20403;-87
2021/11/14 07:39:15;;;;;;;54.10;34.50;;;;;;;8.75;91.91;100540.31;5016868;28;20781;-88
2021/11/14 07:41:41;;;;;;;61.13;37.88;;;;;;;8.78;91.78;100542.53;5032036;28;20764;-88
2021/11/14 07:44:06;;;;;;;58.37;35.70;;;;;;;8.82;91.83;100545.59;5027142;28;20480;-89
2021/11/14 07:46:32;;;;;;;65.80;35.73;;;;;;;8.84;92.01;100543.47;5020706;28;20403;-88
2021/11/14 07:48:57;;;;;;;61.28;36.42;;;;;;;8.91;91.61;100548.78;5023439;28;20501;-88
2021/11/14 07:51:23;;;;;;;60.60;36.58;;;;;;;8.90;91.68;100560.63;5029840;28;20409;-87
2021/11/14 07:53:48;;;;;;;62.37;36.70;;;;;;;8.86;91.87;100554.88;5033396;28;20399;-88
2021/11/14 07:56:14;;;;;;;62.43;36.77;;;;;;;8.87;91.37;100559.22;5030709;28;20407;-89
2021/11/14 07:58:40;;;;;;;64.85;39.22;;;;;;;8.86;91.89;100560.28;5033873;28;20797;-87
2021/11/14 08:01:05;;;;;;;58.72;35.65;;;;;;;8.92;92.13;100567.50;5022623;28;20446;-87
2021/11/14 08:03:33;;;;;;;67.07;38.37;;;;;;;8.98;91.96;100563.84;5033454;28;20415;-86
2021/11/14 08:06:00;;;;;;;60.88;37.15;;;;;;;9.03;91.72;100563.97;5034006;28;20406;-92
2021/11/14 08:08:26;;;;;;;65.73;39.20;;;;;;;9.06;91.75;100568.06;5033452;28;20754;-90
2021/11/14 08:10:51;;;;;;;64.87;38.27;;;;;;;9.10;91.38;100572.81;5032774;28;20901;-88
2021/11/14 08:13:17;;;;;;;63.00;36.50;;;;;;;9.13;91.78;100574.22;5031241;28;20420;-88
2021/11/14 08:15:42;;;;;;;64.45;38.97;;;;;;;9.17;91.35;100570.81;5032242;28;20402;-90
2021/11/14 08:18:09;;;;;;;65.87;38.10;;;;;;;9.23;91.24;100572.59;5033222;28;20813;-89
2021/11/14 08:20:35;;;;;;;62.42;36.88;;;;;;;9.28;91.44;100574.59;5023780;28;20423;-90
2021/11/14 08:23:06;;;;;;;58.72;35.72;;;;;;;9.35;90.94;100578.03;5033301;28;20423;-88
2021/11/14 08:25:33;;;;;;;58.90;37.23;;;;;;;9.42;90.88;100575.19;5031944;28;20483;-87
2021/11/14 08:27:58;;;;;;;57.22;35.80;;;;;;;9.45;90.54;100570.13;5022178;28;20774;-81
2021/11/14 08:30:27;;;;;;;52.78;33.58;;;;;;;9.54;90.39;100574.16;5032368;28;20388;-80
2021/11/14 08:33:27;;;;;;;43.85;29.10;;;;;;;9.67;90.41;100576.63;5032790;28;20762;-80
2021/11/14 08:35:53;;;;;;;44.28;29.77;;;;;;;9.89;89.65;100576.81;5027396;28;20414;-80
2021/11/14 08:38:18;;;;;;;49.42;32.38;;;;;;;9.99;89.00;100577.03;5044561;28;20391;-80
2021/11/14 08:40:44;;;;;;;56.57;37.20;;;;;;;10.06;88.47;100575.03;5032162;28;20909;-80
2021/11/14 08:43:10;;;;;;;56.17;35.77;;;;;;;10.07;88.53;100578.56;5032487;28;20425;-80
2021/11/14 08:45:42;;;;;;;47.28;32.25;;;;;;;10.11;88.24;100577.84;5028098;28;20403;-79
2021/11/14 08:48:09;;;;;;;43.72;29.73;;;;;;;10.18;88.42;100577.72;5003964;28;20438;-80
2021/11/14 08:50:39;;;;;;;36.83;25.60;;;;;;;10.35;88.09;100581.34;5028534;28;20512;-80
2021/11/14 08:53:07;;;;;;;33.47;25.55;;;;;;;10.40;87.57;100573.34;5030058;28;20735;-81
2021/11/14 08:55:36;;;;;;;35.00;26.65;;;;;;;10.57;87.66;100586.94;5028248;28;20798;-80
2021/11/14 08:58:01;;;;;;;40.45;28.20;;;;;;;10.77;86.96;100585.41;5030143;28;20395;-80
2021/11/14 09:00:31;;;;;;;30.35;23.30;;;;;;;10.66;86.23;100588.19;5029941;28;20477;-80
2021/11/14 09:02:58;;;;;;;31.20;23.63;;;;;;;10.64;86.20;100593.00;5031757;28;20489;-80
2021/11/14 09:05:25;;;;;;;33.67;24.73;;;;;;;10.49;86.38;100595.44;5029522;28;20409;-80
2021/11/14 09:07:56;;;;;;;35.55;25.67;;;;;;;10.47;86.72;100598.41;5027719;28;20409;-80
2021/11/14 09:10:24;;;;;;;31.42;22.65;;;;;;;10.47;86.83;100598.41;5031726;28;20865;-81
2021/11/14 09:12:50;;;;;;;34.60;26.07;;;;;;;10.50;86.71;100600.63;5030023;28;20395;-81
2021/11/14 09:15:17;;;;;;;37.60;26.83;;;;;;;10.56;86.80;100610.50;5031014;28;20479;-81
2021/11/14 09:17:44;;;;;;;34.13;25.48;;;;;;;10.67;86.51;100609.63;5022372;28;20414;-80
2021/11/14 09:20:10;;;;;;;35.25;26.08;;;;;;;10.72;86.30;100611.63;5030940;28;20423;-81
2021/11/14 09:22:37;;;;;;;34.50;24.00;;;;;;;10.61;85.88;100613.28;5025222;28;20425;-81
2021/11/14 09:25:03;;;;;;;34.47;24.30;;;;;;;10.49;86.16;100614.41;5017317;28;20406;-81
2021/11/14 09:27:29;;;;;;;35.22;24.95;;;;;;;10.35;86.57;100621.97;5029978;28;20462;-80
2021/11/14 09:29:54;;;;;;;35.13;25.20;;;;;;;10.29;86.73;100617.53;5030499;28;20434;-82
2021/11/14 09:32:19;;;;;;;40.17;27.87;;;;;;;10.36;87.02;100623.63;5030324;28;20465;-81
2021/11/14 09:34:45;;;;;;;36.00;26.20;;;;;;;10.54;86.71;100617.22;5028772;28;21200;-81
2021/11/14 09:37:10;;;;;;;35.38;25.95;;;;;;;10.66;86.52;100626.97;5028860;28;20415;-81
2021/11/14 09:39:36;;;;;;;35.33;25.93;;;;;;;10.76;86.22;100635.28;5030095;28;20415;-81
2021/11/14 09:42:02;;;;;;;33.93;25.00;;;;;;;10.86;86.04;100640.09;5026480;28;20419;-81
2021/11/14 09:44:27;;;;;;;31.35;24.27;;;;;;;10.97;85.42;100633.75;5031350;28;20391;-80
2021/11/14 09:46:56;;;;;;;33.75;23.80;;;;;;;11.06;85.28;100635.03;5030468;28;20924;-80
2021/11/14 09:49:24;;;;;;;29.25;22.85;;;;;;;11.12;84.70;100644.09;5031086;28;20421;-81
2021/11/14 09:51:51;;;;;;;34.03;24.70;;;;;;;11.17;84.47;100646.88;5027746;28;20418;-81
2021/11/14 09:54:19;;;;;;;31.63;23.60;;;;;;;11.19;84.68;100647.47;5027930;28;20467;-80
2021/11/14 09:56:46;;;;;;;31.02;23.60;;;;;;;11.28;84.51;100648.72;5029645;28;20781;-81
2021/11/14 09:59:11;;;;;;;24.45;19.90;;;;;;;11.24;84.21;100647.53;5026933;28;20399;-82
2021/11/14 10:01:37;;;;;;;26.50;19.95;;;;;;;11.25;84.02;100649.19;5026200;28;20403;-80
2021/11/14 10:04:03;;;;;;;25.20;21.33;;;;;;;11.16;83.86;100647.97;5029074;28;20992;-83
2021/11/14 10:06:28;;;;;;;28.23;22.67;;;;;;;11.13;84.28;100656.59;5030297;28;20400;-82
2021/11/14 10:08:54;;;;;;;33.72;21.85;;;;;;;11.32;84.46;100642.56;5029929;28;20467;-82
2021/11/14 10:11:31;;;;;;;25.15;21.00;;;;;;;11.59;83.83;100645.44;5031286;28;20391;-83
2021/11/14 10:13:56;;;;;;;24.38;21.27;;;;;;;11.70;82.63;100647.28;5031357;28;20419;-82
2021/11/14 10:16:22;;;;;;;25.27;20.40;;;;;;;11.64;82.24;100644.69;5029504;28;20452;-82
2021/11/14 10:19:12;;;;;;;24.03;21.17;;;;;;;11.62;82.03;100641.41;5030877;28;20497;-83
2021/11/14 10:21:38;;;;;;;24.38;20.92;;;;;;;11.50;82.61;100640.66;5030849;28;20415;-83
2021/11/14 10:24:06;;;;;;;25.92;21.70;;;;;;;11.49;82.81;100641.75;5031167;28;20545;-82
2021/11/14 10:26:32;;;;;;;23.48;18.58;;;;;;;11.78;82.21;100641.44;5015414;28;20742;-83
2021/11/14 10:29:00;;;;;;;21.95;18.67;;;;;;;12.00;81.18;100643.38;5030848;28;20804;-83
2021/11/14 10:31:27;;;;;;;22.73;19.52;;;;;;;12.24;80.05;100645.63;5028101;28;20415;-83
2021/11/14 10:33:53;;;;;;;22.65;18.42;;;;;;;12.11;79.40;100640.56;5031028;28;20395;-83
2021/11/14 10:36:20;;;;;;;22.08;18.92;;;;;;;11.85;80.00;100654.84;5030963;28;20460;-83
2021/11/14 10:38:45;;;;;;;22.33;18.93;;;;;;;11.66;80.94;100661.53;5030784;28;20411;-83
2021/11/14 10:41:13;;;;;;;22.33;18.17;;;;;;;11.49;81.38;100664.28;5030839;28;20398;-85
2021/11/14 10:43:39;;;;;;;20.27;17.95;;;;;;;11.36;81.55;100662.69;5032082;28;20493;-81
2021/11/14 10:46:17;;;;;;;24.55;20.33;;;;;;;11.22;81.97;100668.69;5031924;28;20500;-83
2021/11/14 10:48:43;;;;;;;23.83;20.17;;;;;;;11.07;82.79;100669.22;5034086;28;20402;-83
2021/11/14 10:51:11;;;;;;;24.17;19.33;;;;;;;10.98;83.38;100667.13;5034727;28;20391;-83
2021/11/14 10:53:37;;;;;;;25.27;19.98;;;;;;;10.94;83.58;100664.09;5034581;28;20461;-83
2021/11/14 10:56:09;;;;;;;24.05;20.10;;;;;;;11.05;83.44;100665.09;5030527;28;20405;-83
2021/11/14 10:58:35;;;;;;;24.45;20.38;;;;;;;11.04;83.46;100667.00;5031617;28;20413;-83
2021/11/14 11:01:05;;;;;;;25.98;21.65;;;;;;;11.08;83.03;100664.63;5034262;28;20402;-83
2021/11/14 11:03:43;;;;;;;22.48;19.20;;;;;;;11.13;83.25;100665.53;5028711;28;20449;-83
2021/11/14 11:06:16;;;;;;;26.88;19.90;;;;;;;11.21;83.40;100662.44;5034367;28;20399;-83
2021/11/14 11:08:44;;;;;;;24.23;20.17;;;;;;;11.39;82.86;100654.06;5034315;28;20387;-83
2021/11/14 11:11:20;;;;;;;21.98;17.60;;;;;;;11.42;82.47;100648.16;5034508;28;20397;-83
2021/11/14 11:13:48;;;;;;;23.45;18.75;;;;;;;11.47;81.95;100650.13;5030467;28;20405;-80
2021/11/14 11:16:19;;;;;;;22.20;18.87;;;;;;;11.39;82.07;100648.63;5034165;28;20477;-83
2021/11/14 11:18:56;;;;;;;24.73;19.20;;;;;;;11.45;82.16;100652.28;5029572;28;20403;-83